• Join FlightAware (Why Join?)
  • Login
  • US Flag 
12:23PM EDT


 

Airport Tracker/Info


-or-


 

Live Flight TrackerFlight Track Log ✈ GLA154 ✈ 21-Apr-2013 ✈ KPRC - KIGM

Flight Track Log - Related Links

Times and Time Zones

All times are in EDT time to prevent confusion due to time zone crossing. See the GLA154 flight status page for this flight to view local times or setup timezone preferences in your user account.

Time Position Orientation Groundspeed Altitude Reporting Facility
EDT Latitude Longitude Course Direction KTS MPH feet Rate Location/Type
12:20PM 34.9902 -112.7758 312° West  Level FlightAware Approximate
12:20PM 34.8739 -112.6656 314° West 285 328 9,900  Level Albuquerque Center
12:21PM 35.0337 -112.8337 321° Northwest  Level FlightAware Approximate
12:21PM 34.9133 -112.7211 311° West 219 252 11,600  Level Albuquerque Center
12:22PM 35.0836 -112.8835 321° Northwest  Level FlightAware Approximate
12:22PM 34.9394 -112.7794 299° West 200 230 13,100  Level Albuquerque Center
12:23PM 35.1334 -112.9334 321° Northwest  Level FlightAware Approximate
12:23PM 34.9650 -112.8364 299° West 193 222 14,600  Level Albuquerque Center
12:24PM 35.1833 -112.9833 321° Northwest  Level FlightAware Approximate
12:24PM 34.9875 -112.8936 296° West 188 216 16,000  Level Albuquerque Center
12:25PM 35.2227 -113.0450 314° West  Level FlightAware Approximate
12:25PM 35.0136 -112.9714 292° West 204 235 16,000  Level Albuquerque Center
12:26PM 35.0372 -113.0439 292° West 223 257 16,000  Level Albuquerque Center
12:27PM 35.0575 -113.1211 288° West 234 269 16,000  Level Albuquerque Center
12:28PM 35.0797 -113.1981 289° West 238 274 16,000  Level Albuquerque Center
12:29PM 35.1008 -113.2747 289° West 239 275 16,100 -120 Climbing Albuquerque Center
12:30PM 35.1214 -113.3522 288° West 239 275 15,800 -480 Descending Albuquerque Center
12:30PM 35.1286 -113.3853 285° West 241 277 15,500 -960 Descending Los Angeles Center
12:31PM 35.1456 -113.4708 284° West 254 292 14,600 -1,200 Descending Los Angeles Center
12:32PM 35.1675 -113.5589 287° West 266 306 13,100 -1,620 Descending Los Angeles Center
12:33PM 35.1897 -113.6464 287° West 270 311 11,300 -1,800 Descending Los Angeles Center